KAMW/AMW METAR and TAF weather

Enter ICAO airport designator
Station Type Date Time Source
KAMW METAR 2018/07/20 13:53 UTC NOAA

KAMW 201353Z AUTO 33018G28KT 10SM OVC019 21/17 A2984 RMK AO2 PK WND 32031/1319 SLP095 T02060167


Station Type Date Time Source
KAMW Decoded METAR 2018/07/20 13:53 UTC NOAA

AMES MUNICIPAL AIRPORT, IA, United States (KAMW) 41-59N 93-37W 279M
Jul 20, 2018 - 09:53 AM EDT / 2018.07.20 1353 UTC
Wind: from the NNW (330 degrees) at 21 MPH (18 KT) gusting to 32 MPH (28 KT):0
Visibility: 10 mile(s):0
Sky conditions: overcast
Temperature: 69.1 F (20.6 C)
Dew Point: 62.1 F (16.7 C)
Relative Humidity: 78%
Pressure (altimeter): 29.84 in. Hg (1010 hPa)
ob: KAMW 201353Z AUTO 33018G28KT 10SM OVC019 21/17 A2984 RMK AO2 PK WND 32031/1319 SLP095 T02060167
cycle: 14

Station Type Date Time Source
KAMW TAF UTC NOAA

Error!


Example: see airport list